Time;durP1;ratioP1;P1;durP2;ratioP2;P2;SDS_P1;SDS_P2;PMS_P1;PMS_P2;Temp;Humidity;BMP_temperature;BMP_pressure;BME280_temperature;BME280_humidity;BME280_pressure;Samples;Min_cycle;Max_cycle;Signal;HPM_P1;HPM_P2
2020/12/11 00:02:23;;;;;;;55.72;23.95;;;1.50;92.80;;;;;;5053364;28;20025;-78
2020/12/11 00:04:48;;;;;;;56.70;26.25;;;1.50;92.70;;;;;;5053257;28;20099;-79
2020/12/11 00:07:14;;;;;;;53.25;21.58;;;1.40;92.70;;;;;;5053339;28;20061;-78
2020/12/11 00:09:40;;;;;;;45.60;23.02;;;1.40;92.70;;;;;;5053523;28;20029;-78
2020/12/11 00:12:05;;;;;;;48.80;23.33;;;1.40;92.70;;;;;;5035261;28;20578;-78
2020/12/11 00:14:31;;;;;;;55.75;23.58;;;1.40;92.70;;;;;;5053153;28;20025;-78
2020/12/11 00:16:57;;;;;;;43.00;20.48;;;1.40;92.70;;;;;;5052941;28;20025;-78
2020/12/11 00:19:23;;;;;;;45.70;20.98;;;1.40;92.60;;;;;;5052955;28;20093;-78
2020/12/11 00:21:49;;;;;;;39.55;21.15;;;1.30;92.70;;;;;;5053071;28;20025;-78
2020/12/11 00:24:15;;;;;;;45.83;21.02;;;1.40;92.70;;;;;;5034780;28;20049;-78
2020/12/11 00:26:41;;;;;;;34.45;17.65;;;1.30;92.70;;;;;;5052715;28;20115;-78
2020/12/11 00:29:07;;;;;;;43.17;19.73;;;1.40;92.70;;;;;;5052380;28;20065;-78
2020/12/11 00:31:32;;;;;;;37.58;20.35;;;1.30;92.60;;;;;;5035194;28;20028;-78
2020/12/11 00:33:58;;;;;;;39.28;20.65;;;1.30;92.60;;;;;;5052801;28;20025;-78
2020/12/11 00:36:25;;;;;;;36.83;18.55;;;1.30;92.90;;;;;;5053067;28;20063;-78
2020/12/11 00:38:52;;;;;;;45.05;19.10;;;1.30;92.70;;;;;;5034682;28;20464;-78
2020/12/11 00:41:17;;;;;;;45.50;20.13;;;1.30;92.60;;;;;;5052755;28;20021;-78
2020/12/11 00:43:43;;;;;;;39.53;21.20;;;1.30;92.50;;;;;;5035096;28;20360;-78
2020/12/11 00:46:09;;;;;;;35.65;20.70;;;1.30;92.60;;;;;;5052785;28;20029;-78
2020/12/11 00:48:35;;;;;;;41.10;17.40;;;1.30;92.50;;;;;;5052854;28;20026;-77
2020/12/11 00:51:00;;;;;;;43.58;20.70;;;1.30;92.60;;;;;;5052703;28;20029;-77
2020/12/11 00:53:26;;;;;;;40.95;19.40;;;1.30;92.70;;;;;;5052726;28;20125;-77
2020/12/11 00:55:52;;;;;;;42.35;19.67;;;1.30;92.60;;;;;;5035043;28;20017;-78
2020/12/11 00:58:18;;;;;;;40.65;19.60;;;1.30;92.70;;;;;;5056253;28;20021;-78
2020/12/11 01:00:44;;;;;;;42.40;20.40;;;1.30;92.60;;;;;;5038608;28;20032;-77
2020/12/11 01:03:10;;;;;;;41.20;19.52;;;1.30;92.60;;;;;;5056362;28;20387;-77
2020/12/11 01:05:36;;;;;;;41.75;21.10;;;1.30;92.60;;;;;;5056156;28;20435;-79
2020/12/11 01:08:03;;;;;;;38.70;19.67;;;1.30;92.70;;;;;;5056250;28;20064;-78
2020/12/11 01:10:29;;;;;;;40.50;18.92;;;1.30;92.60;;;;;;5056057;28;20053;-80
2020/12/11 01:12:55;;;;;;;38.28;19.63;;;1.30;92.50;;;;;;5055889;28;20025;-79
2020/12/11 01:15:21;;;;;;;39.63;19.50;;;1.30;92.50;;;;;;5056303;28;20533;-80
2020/12/11 01:17:47;;;;;;;45.63;19.85;;;1.30;92.50;;;;;;5055878;28;20478;-80
2020/12/11 01:20:13;;;;;;;41.20;19.40;;;1.30;92.50;;;;;;5056030;28;20029;-80
2020/12/11 01:22:38;;;;;;;39.15;18.85;;;1.30;92.50;;;;;;5038185;28;20025;-79
2020/12/11 01:25:04;;;;;;;35.75;17.23;;;1.30;92.40;;;;;;5038173;28;20072;-79
2020/12/11 01:27:30;;;;;;;37.08;18.33;;;1.30;92.30;;;;;;5056458;28;20064;-80
2020/12/11 01:29:56;;;;;;;37.55;18.77;;;1.30;92.20;;;;;;5055965;28;20040;-79
2020/12/11 01:32:21;;;;;;;44.10;20.40;;;1.30;92.10;;;;;;5055736;28;20021;-79
2020/12/11 01:34:47;;;;;;;44.90;20.77;;;1.30;92.10;;;;;;5055786;28;20053;-79
2020/12/11 01:37:13;;;;;;;42.67;19.90;;;1.20;92.10;;;;;;5038509;28;20025;-79
2020/12/11 01:39:38;;;;;;;41.55;18.90;;;1.20;92.10;;;;;;5037777;28;20788;-79
2020/12/11 01:42:12;;;;;;;40.75;19.10;;;1.20;92.00;;;;;;5056333;28;20036;-78
2020/12/11 01:44:46;;;;;;;37.50;17.92;;;1.10;91.90;;;;;;5038247;28;20025;-79
2020/12/11 01:47:12;;;;;;;35.80;16.90;;;1.10;91.90;;;;;;5056241;28;20029;-80
2020/12/11 01:49:38;;;;;;;32.70;16.52;;;1.00;91.70;;;;;;5055814;28;20029;-78
2020/12/11 01:52:05;;;;;;;34.85;16.55;;;0.90;91.60;;;;;;5056004;28;20017;-79
2020/12/11 01:54:30;;;;;;;37.42;15.73;;;0.80;91.50;;;;;;5055805;28;20021;-79
2020/12/11 01:57:01;;;;;;;26.52;12.75;;;0.80;91.60;;;;;;5055657;28;20401;-78
2020/12/11 01:59:38;;;;;;;33.55;15.77;;;0.70;91.60;;;;;;5037579;28;20028;-78
2020/12/11 02:02:05;;;;;;;38.22;16.95;;;0.60;91.50;;;;;;5037687;28;20119;-77
2020/12/11 02:04:33;;;;;;;37.97;17.23;;;0.60;91.60;;;;;;5055444;28;20025;-77
2020/12/11 02:06:58;;;;;;;46.30;19.30;;;0.50;91.60;;;;;;5055701;28;20045;-76
2020/12/11 02:09:25;;;;;;;45.67;18.05;;;0.50;91.60;;;;;;5054563;28;20084;-77
2020/12/11 02:11:52;;;;;;;44.33;18.40;;;0.40;91.60;;;;;;5037629;28;20025;-78
2020/12/11 02:14:18;;;;;;;39.38;16.85;;;0.40;91.60;;;;;;5055382;28;20053;-78
2020/12/11 02:16:44;;;;;;;41.25;17.13;;;0.30;91.60;;;;;;5055051;28;20021;-78
2020/12/11 02:19:11;;;;;;;42.85;18.15;;;0.30;91.70;;;;;;5054948;28;20074;-78
2020/12/11 02:21:36;;;;;;;35.55;16.85;;;0.20;91.70;;;;;;5054790;28;20116;-77
2020/12/11 02:24:02;;;;;;;30.42;14.75;;;0.20;91.70;;;;;;5054665;28;20499;-77
2020/12/11 02:26:28;;;;;;;41.53;17.20;;;0.20;91.70;;;;;;5054777;28;20066;-77
2020/12/11 02:28:54;;;;;;;35.45;14.90;;;0.10;91.60;;;;;;5054204;28;20502;-77
2020/12/11 02:31:19;;;;;;;32.88;14.20;;;0.10;91.70;;;;;;5054071;28;20029;-76
2020/12/11 02:33:45;;;;;;;57.25;24.35;;;0.00;91.70;;;;;;5035342;28;20021;-77
2020/12/11 02:36:11;;;;;;;26.08;14.95;;;0.00;91.70;;;;;;5035205;28;20021;-77
2020/12/11 02:38:37;;;;;;;33.50;13.93;;;-0.10;91.70;;;;;;5053505;28;20498;-78
2020/12/11 02:41:02;;;;;;;37.35;14.90;;;-0.10;91.80;;;;;;5053800;28;20040;-77
2020/12/11 02:43:36;;;;;;;28.25;14.98;;;-0.10;91.80;;;;;;5054250;28;20035;-77
2020/12/11 02:46:03;;;;;;;27.45;12.32;;;-0.10;91.80;;;;;;5054168;28;20033;-77
2020/12/11 02:48:29;;;;;;;31.55;14.23;;;-0.20;92.00;;;;;;5054674;28;20035;-77
2020/12/11 02:50:55;;;;;;;27.58;12.60;;;-0.20;91.70;;;;;;5054073;28;20021;-77
2020/12/11 02:53:21;;;;;;;28.60;13.82;;;-0.30;91.60;;;;;;5053610;28;20048;-78
2020/12/11 02:55:47;;;;;;;24.50;11.35;;;-0.30;91.60;;;;;;5036122;28;20036;-78
2020/12/11 02:58:12;;;;;;;38.70;13.88;;;-0.30;91.70;;;;;;5035820;28;20101;-78
2020/12/11 03:00:38;;;;;;;32.47;15.15;;;-0.40;91.70;;;;;;5054166;28;20108;-77
2020/12/11 03:03:03;;;;;;;33.78;14.38;;;-0.40;91.70;;;;;;5036546;28;20029;-78
2020/12/11 03:05:29;;;;;;;26.77;12.88;;;-0.40;91.70;;;;;;5036854;28;20471;-78
2020/12/11 03:07:55;;;;;;;36.15;15.73;;;-0.50;91.70;;;;;;5054581;28;20087;-78
2020/12/11 03:10:20;;;;;;;32.60;15.73;;;-0.50;91.60;;;;;;5054205;28;20027;-78
2020/12/11 03:12:46;;;;;;;37.92;15.77;;;-0.50;91.80;;;;;;5054093;28;20033;-78
2020/12/11 03:15:12;;;;;;;37.80;16.15;;;-0.60;91.80;;;;;;5036394;28;20784;-78
2020/12/11 03:17:37;;;;;;;26.85;13.50;;;-0.60;91.80;;;;;;5053924;28;20029;-78
2020/12/11 03:20:03;;;;;;;39.42;15.77;;;-0.60;91.90;;;;;;5053736;28;20061;-79
2020/12/11 03:22:29;;;;;;;27.58;14.00;;;-0.60;91.80;;;;;;5053986;28;20040;-78
2020/12/11 03:24:55;;;;;;;30.60;14.20;;;-0.70;91.80;;;;;;5054068;28;20045;-78
2020/12/11 03:27:20;;;;;;;44.03;17.85;;;-0.70;91.80;;;;;;5035881;28;20494;-78
2020/12/11 03:29:46;;;;;;;31.08;15.23;;;-0.70;91.70;;;;;;5053502;28;20037;-78
2020/12/11 03:32:12;;;;;;;28.30;12.93;;;-0.70;91.80;;;;;;5054317;28;20028;-77
2020/12/11 03:34:37;;;;;;;28.23;12.55;;;-0.70;91.80;;;;;;5053689;28;20052;-78
2020/12/11 03:37:03;;;;;;;34.58;14.70;;;-0.80;91.80;;;;;;5054090;28;20448;-78
2020/12/11 03:39:29;;;;;;;35.53;14.75;;;-0.80;91.80;;;;;;5053768;28;20074;-78
2020/12/11 03:41:55;;;;;;;26.75;12.80;;;-0.80;91.90;;;;;;5053614;28;20029;-78
2020/12/11 03:44:21;;;;;;;22.63;11.00;;;-0.80;91.90;;;;;;5053697;28;20426;-78
2020/12/11 03:46:47;;;;;;;40.75;14.20;;;-0.80;92.20;;;;;;5053822;28;20032;-79
2020/12/11 03:49:12;;;;;;;27.52;13.88;;;-0.80;91.90;;;;;;5053369;28;20476;-78
2020/12/11 03:51:38;;;;;;;38.30;14.20;;;-0.90;91.90;;;;;;5035437;28;20033;-78
2020/12/11 03:54:04;;;;;;;27.35;13.15;;;-0.80;92.00;;;;;;5053176;28;20074;-78
2020/12/11 03:56:30;;;;;;;28.25;13.40;;;-0.90;92.00;;;;;;5035834;28;20842;-77
2020/12/11 03:58:56;;;;;;;33.33;13.52;;;-0.90;91.90;;;;;;5053388;28;20796;-78
2020/12/11 04:01:22;;;;;;;28.38;13.43;;;-0.90;91.90;;;;;;5053052;28;20037;-78
2020/12/11 04:03:48;;;;;;;23.75;13.55;;;-0.90;92.00;;;;;;5053389;28;20042;-79
2020/12/11 04:06:16;;;;;;;26.77;12.93;;;-0.90;92.00;;;;;;5053272;28;20031;-78
2020/12/11 04:08:43;;;;;;;28.58;13.70;;;-0.90;92.00;;;;;;5053365;28;20110;-78
2020/12/11 04:11:10;;;;;;;30.48;15.07;;;-0.90;92.10;;;;;;5035051;28;20029;-78
2020/12/11 04:13:36;;;;;;;32.75;13.57;;;-0.90;92.00;;;;;;5053331;28;20113;-78
2020/12/11 04:16:03;;;;;;;30.70;14.52;;;-0.90;92.00;;;;;;5035807;28;20081;-79
2020/12/11 04:18:29;;;;;;;33.63;15.18;;;-0.90;92.00;;;;;;5054071;28;20052;-79
2020/12/11 04:20:56;;;;;;;31.33;14.73;;;-0.90;92.10;;;;;;5053411;28;20033;-79
2020/12/11 04:23:26;;;;;;;34.15;13.75;;;-0.90;92.00;;;;;;5053145;28;20032;-79
2020/12/11 04:25:53;;;;;;;32.00;14.70;;;-0.90;92.10;;;;;;5053481;28;20067;-79
2020/12/11 04:28:20;;;;;;;36.05;14.93;;;-0.90;92.10;;;;;;5052568;28;20037;-78
2020/12/11 04:30:46;;;;;;;41.22;15.40;;;-0.90;92.00;;;;;;5051989;28;20422;-79
2020/12/11 04:33:11;;;;;;;35.58;15.48;;;-0.90;92.00;;;;;;5055402;28;20025;-79
2020/12/11 04:35:37;;;;;;;28.55;13.73;;;-1.00;92.00;;;;;;5055990;28;20032;-78
2020/12/11 04:38:03;;;;;;;29.83;14.18;;;-1.00;92.00;;;;;;5056642;28;20029;-79
2020/12/11 04:40:30;;;;;;;33.72;14.95;;;-1.00;92.00;;;;;;5055643;28;20025;-79
2020/12/11 04:42:55;;;;;;;43.42;16.67;;;-1.00;92.00;;;;;;5056024;28;20053;-79
2020/12/11 04:45:23;;;;;;;37.83;15.90;;;-1.00;92.10;;;;;;5056193;28;20430;-79
2020/12/11 04:47:50;;;;;;;27.42;13.70;;;-1.00;92.20;;;;;;5056270;28;20059;-80
2020/12/11 04:50:18;;;;;;;35.10;14.38;;;-1.00;92.10;;;;;;5055674;28;20064;-80
2020/12/11 04:52:46;;;;;;;36.33;16.10;;;-1.10;92.10;;;;;;5055987;28;20048;-79
2020/12/11 04:55:16;;;;;;;36.55;15.73;;;-1.10;92.10;;;;;;5054877;28;20066;-80
2020/12/11 04:57:45;;;;;;;32.03;14.20;;;-1.10;92.00;;;;;;5055640;28;20104;-79
2020/12/11 05:00:12;;;;;;;31.85;15.40;;;-1.10;92.10;;;;;;5055072;28;20029;-79
2020/12/11 05:02:40;;;;;;;40.78;16.58;;;-1.10;92.10;;;;;;5055546;28;20029;-79
2020/12/11 05:05:07;;;;;;;37.75;15.30;;;-1.20;92.00;;;;;;5055853;28;20683;-79
2020/12/11 05:07:33;;;;;;;38.60;17.38;;;-1.20;92.00;;;;;;5055849;28;20029;-80
2020/12/11 05:09:59;;;;;;;31.35;14.88;;;-1.20;92.10;;;;;;5055175;28;20107;-79
2020/12/11 05:12:25;;;;;;;32.42;14.18;;;-1.20;92.00;;;;;;5055233;28;20467;-79
2020/12/11 05:15:02;;;;;;;34.58;14.88;;;-1.30;92.00;;;;;;5055612;28;20104;-79
2020/12/11 05:17:30;;;;;;;35.22;15.27;;;-1.30;92.10;;;;;;5055011;28;20025;-79
2020/12/11 05:19:57;;;;;;;38.35;16.42;;;-1.30;92.10;;;;;;5037527;28;20033;-80
2020/12/11 05:22:25;;;;;;;32.05;14.70;;;-1.30;92.10;;;;;;5055223;28;20059;-79
2020/12/11 05:24:53;;;;;;;37.88;16.77;;;-1.30;92.10;;;;;;5055568;28;20041;-80
2020/12/11 05:27:30;;;;;;;39.58;16.33;;;-1.40;92.10;;;;;;5037629;28;20041;-80
2020/12/11 05:30:12;;;;;;;44.30;18.55;;;-1.40;92.10;;;;;;5055512;28;20583;-79
2020/12/11 05:32:42;;;;;;;38.00;14.40;;;-1.40;92.10;;;;;;5055666;28;20024;-80
2020/12/11 05:35:22;;;;;;;37.15;15.68;;;-1.40;92.10;;;;;;5055597;28;20096;-80
2020/12/11 05:37:49;;;;;;;40.13;16.15;;;-1.50;92.10;;;;;;5055561;28;20013;-80
2020/12/11 05:40:16;;;;;;;35.05;15.52;;;-1.50;92.10;;;;;;5055383;28;20047;-81
2020/12/11 05:42:42;;;;;;;35.10;15.45;;;-1.50;92.10;;;;;;5054814;28;20021;-79
2020/12/11 05:45:18;;;;;;;31.83;14.25;;;-1.60;92.10;;;;;;5054558;28;20033;-80
2020/12/11 05:47:44;;;;;;;32.88;13.40;;;-1.60;92.00;;;;;;5037591;28;20029;-81
2020/12/11 05:50:10;;;;;;;35.10;16.23;;;-1.60;91.90;;;;;;5055079;28;20025;-79
2020/12/11 05:52:36;;;;;;;37.05;15.30;;;-1.60;91.90;;;;;;5054668;28;20032;-80
2020/12/11 05:55:02;;;;;;;37.33;15.40;;;-1.70;92.00;;;;;;5054755;28;20430;-80
2020/12/11 05:57:31;;;;;;;41.97;16.67;;;-1.80;91.90;;;;;;5036811;28;20090;-80
2020/12/11 05:59:57;;;;;;;39.15;18.17;;;-1.80;92.00;;;;;;5054477;28;20495;-80
2020/12/11 06:02:26;;;;;;;41.53;18.02;;;-1.80;92.10;;;;;;5054420;28;20064;-80
2020/12/11 06:04:54;;;;;;;34.88;13.18;;;-1.80;92.30;;;;;;5054273;28;20021;-81
2020/12/11 06:07:25;;;;;;;37.90;16.42;;;-1.80;92.20;;;;;;5054512;28;20558;-80
2020/12/11 06:09:51;;;;;;;39.88;15.52;;;-1.80;92.10;;;;;;5053669;28;20083;-80
2020/12/11 06:12:27;;;;;;;27.65;14.52;;;-1.80;92.10;;;;;;5036388;28;20479;-81
2020/12/11 06:15:05;;;;;;;37.38;16.38;;;-1.80;92.10;;;;;;5053725;28;20055;-80
2020/12/11 06:17:39;;;;;;;31.13;13.82;;;-1.90;92.10;;;;;;5053755;28;20530;-80
2020/12/11 06:20:08;;;;;;;36.58;15.77;;;-1.90;92.10;;;;;;5054368;28;20426;-81
2020/12/11 06:22:35;;;;;;;36.80;15.73;;;-1.90;92.20;;;;;;5035642;28;20123;-80
2020/12/11 06:25:28;;;;;;;34.53;15.10;;;-1.90;92.30;;;;;;5035061;28;20040;-80
2020/12/11 06:27:55;;;;;;;37.95;16.33;;;-1.90;92.20;;;;;;5032114;28;20384;-81
2020/12/11 06:30:32;;;;;;;48.13;21.92;;;-1.90;92.10;;;;;;5053887;28;20026;-80
2020/12/11 06:32:59;;;;;;;46.97;21.65;;;-1.90;92.20;;;;;;5054984;28;20057;-81
2020/12/11 06:35:26;;;;;;;42.80;19.98;;;-1.90;92.20;;;;;;5035715;28;20025;-81
2020/12/11 06:37:53;;;;;;;39.50;17.67;;;-1.80;92.30;;;;;;5054502;28;20025;-80
2020/12/11 06:40:56;;;;;;;46.83;18.70;;;-1.90;92.30;;;;;;5053590;28;20025;-80
2020/12/11 06:43:42;;;;;;;34.10;16.98;;;-1.80;92.40;;;;;;5054223;28;20052;-80
2020/12/11 06:46:19;;;;;;;38.70;18.35;;;-1.80;92.40;;;;;;5036116;28;20036;-80
2020/12/11 06:49:11;;;;;;;30.75;15.65;;;-1.80;92.30;;;;;;5053771;28;20029;-80
2020/12/11 06:51:45;;;;;;;37.00;17.02;;;-1.80;92.30;;;;;;5053495;28;20021;-80
2020/12/11 06:54:20;;;;;;;46.30;18.67;;;-1.80;92.30;;;;;;5034974;28;20028;-80
2020/12/11 06:56:56;;;;;;;36.75;17.38;;;-1.80;92.50;;;;;;5053230;28;20430;-81
2020/12/11 06:59:25;;;;;;;30.85;14.98;;;-1.80;92.30;;;;;;5053497;28;20025;-80
2020/12/11 07:01:51;;;;;;;37.75;15.68;;;-1.80;92.20;;;;;;5053112;28;20102;-80
2020/12/11 07:04:17;;;;;;;45.13;17.85;;;-1.80;92.00;;;;;;5052766;28;20029;-80
2020/12/11 07:06:53;;;;;;;41.50;18.83;;;-1.90;92.10;;;;;;5052913;28;20533;-80
2020/12/11 07:09:20;;;;;;;53.40;23.40;;;-1.90;92.20;;;;;;5053921;28;20029;-79
2020/12/11 07:11:47;;;;;;;44.42;19.90;;;-1.90;92.40;;;;;;5054907;28;20025;-80
2020/12/11 07:14:14;;;;;;;53.45;22.27;;;-1.90;92.30;;;;;;5046651;28;20063;-80
2020/12/11 07:16:41;;;;;;;41.83;18.38;;;-1.90;92.40;;;;;;5042533;28;20101;-79
2020/12/11 07:19:07;;;;;;;48.55;20.55;;;-1.80;92.30;;;;;;5033602;28;20128;-80
2020/12/11 07:21:34;;;;;;;49.25;20.50;;;-1.90;92.30;;;;;;5032691;28;20021;-80
2020/12/11 07:24:04;;;;;;;41.35;17.75;;;-1.90;92.30;;;;;;5032186;28;20037;-80
2020/12/11 07:26:30;;;;;;;50.65;21.08;;;-1.90;92.20;;;;;;5032307;28;20029;-81
2020/12/11 07:29:15;;;;;;;52.38;21.63;;;-1.90;92.10;;;;;;5031802;28;20467;-79
2020/12/11 07:31:45;;;;;;;41.60;16.77;;;-1.90;91.90;;;;;;5031932;28;20025;-79
2020/12/11 07:34:23;;;;;;;44.20;18.75;;;-2.00;92.00;;;;;;5032031;28;20513;-80
2020/12/11 07:36:56;;;;;;;34.28;15.98;;;-2.00;92.00;;;;;;5031928;28;20096;-80
2020/12/11 07:39:31;;;;;;;44.40;19.42;;;-2.00;92.10;;;;;;5014270;28;20025;-81
2020/12/11 07:42:01;;;;;;;42.20;19.17;;;-2.00;92.10;;;;;;5031779;28;20079;-74
2020/12/11 07:44:32;;;;;;;49.88;22.33;;;-2.00;92.10;;;;;;5031255;28;20029;-74
2020/12/11 07:47:03;;;;;;;55.70;23.23;;;-2.00;92.10;;;;;;5013116;28;20057;-74
2020/12/11 07:49:45;;;;;;;43.35;20.55;;;-2.00;92.20;;;;;;5033556;28;20357;-75
2020/12/11 07:52:13;;;;;;;59.17;23.27;;;-2.00;92.20;;;;;;5037929;28;20424;-76
2020/12/11 07:54:40;;;;;;;46.97;18.85;;;-2.00;92.20;;;;;;5040563;28;20032;-76
2020/12/11 07:57:16;;;;;;;45.00;19.88;;;-2.00;92.20;;;;;;5029720;28;20375;-75
2020/12/11 07:59:59;;;;;;;28.55;16.05;;;-2.00;92.10;;;;;;5031326;28;20021;-75
2020/12/11 08:02:25;;;;;;;40.08;18.45;;;-2.00;92.20;;;;;;5039195;28;20471;-75
2020/12/11 08:04:52;;;;;;;59.95;24.25;;;-2.00;92.10;;;;;;5039269;28;20047;-74
2020/12/11 08:07:28;;;;;;;47.42;22.02;;;-2.00;92.10;;;;;;5044398;28;20025;-74
2020/12/11 08:10:05;;;;;;;53.63;22.65;;;-2.00;92.10;;;;;;5034983;28;20021;-75
2020/12/11 08:12:31;;;;;;;50.78;22.58;;;-2.00;92.00;;;;;;5044127;28;20018;-75
2020/12/11 08:14:57;;;;;;;50.22;22.05;;;-2.00;92.20;;;;;;5035125;28;20021;-74
2020/12/11 08:17:23;;;;;;;48.17;21.75;;;-2.00;92.30;;;;;;5044357;28;20029;-76
2020/12/11 08:19:58;;;;;;;47.22;21.80;;;-2.00;92.10;;;;;;5043641;28;20021;-76
2020/12/11 08:22:31;;;;;;;44.85;21.35;;;-2.00;92.00;;;;;;5042787;28;20162;-76
2020/12/11 08:24:56;;;;;;;42.03;20.05;;;-2.00;91.90;;;;;;5042309;28;20843;-76
2020/12/11 08:27:25;;;;;;;47.58;22.02;;;-2.10;91.90;;;;;;5044431;28;20117;-76
2020/12/11 08:30:07;;;;;;;49.03;22.40;;;-2.10;92.00;;;;;;5043816;28;20021;-76
2020/12/11 08:32:32;;;;;;;54.00;24.50;;;-2.00;92.10;;;;;;5042484;28;20045;-77
2020/12/11 08:34:58;;;;;;;43.72;19.88;;;-2.00;92.20;;;;;;5044449;28;20071;-76
2020/12/11 08:37:36;;;;;;;49.58;21.25;;;-2.00;92.10;;;;;;5042767;28;20025;-77
2020/12/11 08:40:05;;;;;;;42.42;19.20;;;-2.00;92.10;;;;;;5042608;28;20711;-77
2020/12/11 08:42:41;;;;;;;46.22;19.65;;;-2.00;91.90;;;;;;5043171;28;20032;-76
2020/12/11 08:45:19;;;;;;;34.25;17.10;;;-2.10;91.70;;;;;;5043971;28;20032;-77
2020/12/11 08:48:01;;;;;;;38.53;18.17;;;-2.10;91.80;;;;;;5042339;28;20028;-75
2020/12/11 08:50:32;;;;;;;46.63;21.20;;;-2.20;91.80;;;;;;5026389;28;20148;-76
2020/12/11 08:53:02;;;;;;;51.05;23.35;;;-2.20;91.90;;;;;;5054269;28;20700;-75
2020/12/11 08:55:28;;;;;;;51.30;23.88;;;-2.20;91.90;;;;;;5053829;28;20123;-78
2020/12/11 08:57:53;;;;;;;43.75;19.52;;;-2.20;91.90;;;;;;5053753;28;20417;-78
2020/12/11 09:00:19;;;;;;;41.70;19.85;;;-2.20;92.10;;;;;;5053614;28;20037;-77
2020/12/11 09:02:45;;;;;;;36.80;16.63;;;-2.20;92.00;;;;;;5053653;28;20710;-77
2020/12/11 09:05:11;;;;;;;46.75;21.40;;;-2.20;92.00;;;;;;5054016;28;20021;-77
2020/12/11 09:07:37;;;;;;;45.53;20.33;;;-2.20;91.80;;;;;;5035663;28;20029;-77
2020/12/11 09:10:06;;;;;;;41.22;21.80;;;-2.30;91.80;;;;;;5035740;28;20029;-79
2020/12/11 09:12:35;;;;;;;43.60;20.42;;;-2.30;91.90;;;;;;5053812;28;20028;-79
2020/12/11 09:15:01;;;;;;;35.95;16.15;;;-2.30;92.10;;;;;;5055428;28;20028;-78
2020/12/11 09:17:26;;;;;;;35.63;17.92;;;-2.20;92.20;;;;;;5054309;28;20029;-80
2020/12/11 09:19:52;;;;;;;39.67;19.33;;;-2.30;91.90;;;;;;5055067;28;20095;-79
2020/12/11 09:22:18;;;;;;;49.88;20.95;;;-2.30;91.90;;;;;;5035258;28;20125;-79
2020/12/11 09:24:43;;;;;;;43.50;18.58;;;-2.30;92.10;;;;;;5052500;28;20052;-80
2020/12/11 09:27:12;;;;;;;43.13;20.92;;;-2.30;92.10;;;;;;5034662;28;20036;-80
2020/12/11 09:29:41;;;;;;;38.50;18.58;;;-2.30;92.10;;;;;;5052957;28;20431;-79
2020/12/11 09:32:08;;;;;;;47.25;22.27;;;-2.30;92.10;;;;;;5052606;28;20017;-79
2020/12/11 09:34:34;;;;;;;43.90;21.27;;;-2.30;92.10;;;;;;5052762;28;20052;-81
2020/12/11 09:37:02;;;;;;;43.47;19.70;;;-2.30;92.20;;;;;;5053111;28;20108;-80
2020/12/11 09:39:28;;;;;;;42.55;20.88;;;-2.20;92.30;;;;;;5052764;28;20302;-81
2020/12/11 09:42:10;;;;;;;34.20;17.42;;;-2.20;92.40;;;;;;5035255;28;20083;-79
2020/12/11 09:55:11;;;;;;;43.70;19.38;;;-2.10;92.30;;;;;;5031505;28;20378;-84
2020/12/11 09:57:37;;;;;;;51.90;24.50;;;-2.00;92.30;;;;;;5036925;28;20469;-82
2020/12/11 10:00:05;;;;;;;43.92;22.33;;;-2.00;92.30;;;;;;5053902;28;20029;-82
2020/12/11 10:02:44;;;;;;;42.40;19.35;;;-2.00;92.30;;;;;;5054099;28;20053;-84
2020/12/11 10:05:10;;;;;;;36.47;19.67;;;-2.00;92.30;;;;;;5053590;28;20086;-83
2020/12/11 10:07:37;;;;;;;49.38;21.42;;;-2.00;92.30;;;;;;5053246;28;20029;-80
2020/12/11 10:10:03;;;;;;;47.38;20.63;;;-2.00;92.10;;;;;;5052464;28;20025;-80
2020/12/11 10:12:29;;;;;;;37.72;20.83;;;-2.00;92.00;;;;;;5052631;28;20025;-80
2020/12/11 10:15:07;;;;;;;37.92;19.33;;;-2.10;92.10;;;;;;5052639;28;20025;-81
2020/12/11 10:17:33;;;;;;;44.30;19.20;;;-2.10;92.00;;;;;;5052522;28;20137;-80
2020/12/11 10:19:58;;;;;;;37.38;18.75;;;-2.10;91.90;;;;;;5034244;28;20116;-80
2020/12/11 10:22:24;;;;;;;45.97;18.35;;;-2.20;92.00;;;;;;5052269;28;20032;-80
2020/12/11 10:24:50;;;;;;;37.17;17.83;;;-2.20;92.20;;;;;;5052012;28;20495;-80
2020/12/11 10:27:16;;;;;;;47.95;22.58;;;-2.10;92.30;;;;;;5052169;28;20427;-79
2020/12/11 10:29:42;;;;;;;44.15;19.08;;;-2.10;92.30;;;;;;5051136;28;20032;-80
2020/12/11 10:32:08;;;;;;;50.33;19.63;;;-2.10;92.20;;;;;;5052192;28;20049;-80
2020/12/11 10:34:35;;;;;;;35.38;17.70;;;-2.10;92.10;;;;;;5052082;28;20053;-79
2020/12/11 10:37:13;;;;;;;33.78;16.92;;;-2.10;92.30;;;;;;5051908;28;20067;-80
2020/12/11 10:39:40;;;;;;;36.75;19.65;;;-2.10;92.00;;;;;;5034183;28;20040;-80
2020/12/11 10:42:06;;;;;;;47.13;21.10;;;-2.10;92.10;;;;;;5051862;28;20025;-80
2020/12/11 10:44:32;;;;;;;52.50;23.13;;;-2.20;92.10;;;;;;5051960;28;20100;-80
2020/12/11 10:46:59;;;;;;;49.72;21.65;;;-2.20;92.10;;;;;;5051918;28;20484;-80
2020/12/11 10:49:25;;;;;;;33.72;18.13;;;-2.10;92.30;;;;;;5052012;28;20029;-80
2020/12/11 10:51:51;;;;;;;42.38;19.88;;;-2.10;92.20;;;;;;5051761;28;20022;-80
2020/12/11 10:54:18;;;;;;;48.58;20.45;;;-2.20;92.20;;;;;;5033842;28;20082;-80
2020/12/11 10:56:47;;;;;;;52.85;20.90;;;-2.20;92.10;;;;;;5051907;28;20547;-80
2020/12/11 10:59:14;;;;;;;44.03;21.17;;;-2.10;92.30;;;;;;5034102;28;20024;-79
2020/12/11 11:01:42;;;;;;;41.13;19.63;;;-2.10;92.40;;;;;;5052273;28;20491;-81
2020/12/11 11:04:08;;;;;;;43.13;21.67;;;-2.10;92.30;;;;;;5051580;28;20605;-80
2020/12/11 11:06:41;;;;;;;43.97;18.73;;;-2.10;92.20;;;;;;5051377;28;20100;-80
2020/12/11 11:11:42;;;;;;;43.10;19.30;;;-2.10;92.20;;;;;;5051528;28;20065;-80
2020/12/11 11:19:33;;;;;;;40.72;18.95;;;-2.10;92.20;;;;;;5052001;28;20036;-80
2020/12/11 11:22:42;;;;;;;41.85;17.42;;;-2.20;92.30;;;;;;5051953;28;20027;-79
2020/12/11 11:30:00;;;;;;;38.22;18.00;;;-2.10;92.40;;;;;;5051396;28;20055;-79
2020/12/11 11:32:27;;;;;;;46.65;20.73;;;-2.10;92.50;;;;;;5051394;28;20025;-79
2020/12/11 11:34:52;;;;;;;41.97;20.50;;;-2.10;92.60;;;;;;5051175;28;20387;-81
2020/12/11 11:37:18;;;;;;;40.28;17.63;;;-2.10;92.50;;;;;;5051643;28;20021;-81
2020/12/11 11:39:44;;;;;;;43.92;20.25;;;-2.10;92.50;;;;;;5050997;28;20021;-80
2020/12/11 11:42:09;;;;;;;42.72;20.00;;;-2.10;92.50;;;;;;5033137;28;20028;-79
2020/12/11 11:44:50;;;;;;;46.85;19.77;;;-2.10;92.50;;;;;;5051488;28;20487;-79
2020/12/11 11:47:16;;;;;;;42.70;24.02;;;-2.10;92.60;;;;;;5051760;28;20515;-80
2020/12/11 11:50:12;;;;;;;53.40;25.33;;;-2.00;92.70;;;;;;5051458;28;20025;-81
2020/12/11 11:53:00;;;;;;;50.47;23.60;;;-1.90;92.80;;;;;;5051278;28;20017;-80
2020/12/11 11:55:26;;;;;;;41.30;19.60;;;-1.90;92.90;;;;;;5033486;28;20118;-79
2020/12/11 11:57:51;;;;;;;53.95;24.65;;;-1.90;92.70;;;;;;5033199;28;20025;-79
2020/12/11 12:00:17;;;;;;;58.50;26.00;;;-1.90;92.70;;;;;;5051375;28;20549;-81
2020/12/11 12:02:43;;;;;;;40.45;20.52;;;-1.80;92.80;;;;;;5033464;28;20032;-80
2020/12/11 12:05:10;;;;;;;45.72;22.13;;;-1.80;92.70;;;;;;5051235;28;20021;-80
2020/12/11 12:07:39;;;;;;;44.58;22.75;;;-1.80;92.70;;;;;;5050384;28;20025;-79
2020/12/11 12:10:08;;;;;;;42.92;21.45;;;-1.80;92.70;;;;;;5051031;28;20024;-80
2020/12/11 12:12:37;;;;;;;45.55;24.50;;;-1.80;92.80;;;;;;5051110;28;20463;-80
2020/12/11 12:15:06;;;;;;;57.13;26.92;;;-1.70;92.80;;;;;;5033025;28;20063;-81
2020/12/11 12:17:38;;;;;;;50.97;22.45;;;-1.70;92.80;;;;;;5032517;28;20082;-81
2020/12/11 12:20:09;;;;;;;;;;;-1.60;92.80;;;;;;5051002;28;20021;-80
2020/12/11 12:28:20;;;;;;;56.85;24.70;;;-1.50;92.90;;;;;;5023246;28;20037;-82
2020/12/11 12:30:41;;;;;;;53.42;22.42;;;-1.50;92.90;;;;;;5051077;28;20475;-81
2020/12/11 12:43:42;;;;;;;47.45;19.85;;;-1.40;92.50;;;;;;5052442;28;20036;-81
2020/12/11 12:46:08;;;;;;;51.40;22.67;;;-1.30;92.50;;;;;;5032921;28;20045;-81
2020/12/11 12:48:34;;;;;;;52.75;23.38;;;-1.40;92.50;;;;;;5050823;28;20075;-81
2020/12/11 12:51:00;;;;;;;49.78;23.15;;;-1.40;92.50;;;;;;5033024;28;20044;-82
2020/12/11 12:53:26;;;;;;;48.83;21.25;;;-1.40;92.40;;;;;;5054111;28;20460;-83
2020/12/11 12:58:41;;;;;;;36.05;17.75;;;-1.30;92.30;;;;;;5056255;28;20032;-84
2020/12/11 13:01:25;;;;;;;36.22;17.95;;;-1.40;92.40;;;;;;5054941;28;20032;-83
2020/12/11 13:04:31;;;;;;;38.45;17.48;;;-1.30;92.40;;;;;;5055545;28;20013;-82
2020/12/11 13:06:46;;;;;;;36.55;17.02;;;-1.30;92.40;;;;;;5051265;28;20040;-82
2020/12/11 13:09:13;;;;;;;40.05;17.67;;;-1.40;92.30;;;;;;5054720;28;20471;-83
2020/12/11 13:11:39;;;;;;;38.75;17.88;;;-1.30;92.40;;;;;;5036597;28;20021;-82
2020/12/11 13:14:05;;;;;;;48.17;19.33;;;-1.40;92.30;;;;;;5054813;28;20083;-82
2020/12/11 13:16:31;;;;;;;37.10;17.60;;;-1.30;92.30;;;;;;5036543;28;20024;-81
2020/12/11 13:18:57;;;;;;;34.58;18.00;;;-1.30;92.40;;;;;;5054109;28;20034;-81